Time;durP1;ratioP1;P1;durP2;ratioP2;P2;SDS_P1;SDS_P2;PMS_P1;PMS_P2;Temp;Humidity;BMP_temperature;BMP_pressure;BME280_temperature;BME280_humidity;BME280_pressure;Samples;Min_cycle;Max_cycle;Signal;HPM_P1;HPM_P2
2021/05/14 00:00:24;;;;;;;0.57;0.50;;;;;;;11.26;62.06;96410.28;5007237;28;20041;-78
2021/05/14 00:02:50;;;;;;;0.65;0.60;;;;;;;11.18;61.89;96405.63;5012297;28;20033;-78
2021/05/14 00:05:15;;;;;;;1.25;0.60;;;;;;;11.20;62.12;96408.75;5014213;28;20036;-78
2021/05/14 00:07:41;;;;;;;0.82;0.50;;;;;;;11.15;62.24;96400.94;5013242;28;20135;-78
2021/05/14 00:10:07;;;;;;;1.02;0.40;;;;;;;11.17;62.14;96406.66;5005323;28;20217;-78
2021/05/14 00:12:33;;;;;;;0.88;0.73;;;;;;;11.22;62.81;96412.66;4996494;28;20036;-78
2021/05/14 00:14:59;;;;;;;1.90;0.73;;;;;;;11.23;62.77;96403.00;4978872;28;20022;-78
2021/05/14 00:17:24;;;;;;;0.93;0.50;;;;;;;11.23;62.33;96403.00;5030950;28;20087;-78
2021/05/14 00:19:49;;;;;;;0.80;0.43;;;;;;;11.20;62.58;96399.09;4984653;28;20493;-78
2021/05/14 00:22:15;;;;;;;0.68;0.50;;;;;;;11.06;62.43;96401.50;5007786;28;20405;-78
2021/05/14 00:24:40;;;;;;;1.38;0.63;;;;;;;11.13;62.55;96403.03;4995322;28;20036;-78
2021/05/14 00:27:06;;;;;;;1.00;0.50;;;;;;;11.16;62.55;96408.50;5013106;28;20384;-78
2021/05/14 00:29:31;;;;;;;1.75;0.50;;;;;;;11.17;62.98;96404.06;5029113;28;20041;-78
2021/05/14 00:31:56;;;;;;;0.95;0.50;;;;;;;11.17;62.26;96396.25;5012867;28;20056;-78
2021/05/14 00:34:22;;;;;;;1.38;0.55;;;;;;;11.16;62.84;96403.28;4978973;28;20431;-78
2021/05/14 00:36:48;;;;;;;0.80;0.60;;;;;;;11.22;62.41;96409.25;4974524;28;20043;-78
2021/05/14 00:39:14;;;;;;;1.85;0.80;;;;;;;11.22;62.42;96399.63;4995149;28;20069;-78
2021/05/14 00:41:39;;;;;;;1.10;0.68;;;;;;;11.17;62.64;96404.06;4972506;28;20060;-78
2021/05/14 00:44:34;;;;;;;0.57;0.40;;;;;;;10.87;63.24;96395.31;5010679;28;20044;-78
2021/05/14 00:47:01;;;;;;;0.80;0.35;;;;;;;11.09;62.67;96400.19;4989078;28;20493;-78
2021/05/14 00:49:27;;;;;;;0.55;0.40;;;;;;;11.11;62.63;96395.50;4978249;28;20029;-78
2021/05/14 00:51:56;;;;;;;0.82;0.50;;;;;;;10.92;62.77;96395.28;5010844;28;20543;-78
2021/05/14 00:54:22;;;;;;;0.70;0.57;;;;;;;10.98;62.77;96391.63;4992388;28;20500;-78
2021/05/14 00:56:47;;;;;;;0.60;0.40;;;;;;;11.01;63.31;96396.28;4979208;28;20021;-78
2021/05/14 00:59:13;;;;;;;1.05;0.40;;;;;;;11.10;62.74;96395.75;4984529;28;20071;-78
2021/05/14 01:01:38;;;;;;;0.80;0.60;;;;;;;11.06;62.84;96398.88;4986596;28;20029;-78
2021/05/14 01:04:04;;;;;;;0.75;0.50;;;;;;;11.03;63.16;96396.81;4985643;28;20024;-78
2021/05/14 01:06:30;;;;;;;0.80;0.40;;;;;;;11.05;63.30;96402.56;5012644;28;20036;-78
2021/05/14 01:08:57;;;;;;;1.52;0.47;;;;;;;10.94;63.11;96395.81;5009938;28;20079;-78
2021/05/14 01:11:23;;;;;;;2.22;0.52;;;;;;;11.04;63.14;96397.59;4994860;28;20048;-78
2021/05/14 01:13:49;;;;;;;0.68;0.40;;;;;;;10.95;63.35;96392.16;4969088;28;20034;-78
2021/05/14 01:16:16;;;;;;;6.72;0.82;;;;;;;10.97;63.48;96387.47;4974405;28;20076;-78
2021/05/14 01:18:41;;;;;;;0.70;0.43;;;;;;;10.92;62.94;96389.31;4994957;28;20059;-78
2021/05/14 01:21:07;;;;;;;1.08;0.50;;;;;;;10.99;63.38;96397.63;4993723;28;20355;-78
2021/05/14 01:23:33;;;;;;;0.70;0.40;;;;;;;10.89;63.20;96387.25;4971047;28;20033;-78
2021/05/14 01:25:59;;;;;;;0.73;0.43;;;;;;;10.89;62.93;96389.84;5012084;28;20396;-78
2021/05/14 01:28:26;;;;;;;3.33;0.60;;;;;;;10.84;63.02;96396.59;4987273;28;20402;-78
2021/05/14 01:30:54;;;;;;;0.85;0.47;;;;;;;10.82;63.08;96392.72;5010843;28;20025;-78
2021/05/14 01:33:20;;;;;;;1.45;0.52;;;;;;;10.71;62.93;96397.19;4980220;28;20476;-78
2021/05/14 01:35:47;;;;;;;0.80;0.47;;;;;;;10.70;63.55;96395.59;5005090;28;20418;-78
2021/05/14 01:38:13;;;;;;;0.82;0.40;;;;;;;10.71;63.55;96399.78;4980424;28;20060;-78
2021/05/14 01:40:38;;;;;;;0.65;0.35;;;;;;;10.71;63.47;96398.97;4995272;28;20359;-78
2021/05/14 01:43:04;;;;;;;0.65;0.38;;;;;;;10.79;63.38;96398.44;4979776;28;20029;-78
2021/05/14 01:45:29;;;;;;;0.80;0.40;;;;;;;10.79;63.60;96395.84;5012178;28;20639;-78
2021/05/14 01:47:55;;;;;;;0.38;0.30;;;;;;;10.83;63.63;96395.06;5030577;28;20152;-78
2021/05/14 01:50:20;;;;;;;0.90;0.45;;;;;;;10.85;63.63;96400.78;4995421;28;20037;-78
2021/05/14 01:52:46;;;;;;;0.85;0.47;;;;;;;10.86;63.75;96389.34;4995844;28;20036;-78
2021/05/14 01:55:12;;;;;;;0.38;0.38;;;;;;;10.92;63.64;96392.69;5011845;28;20493;-78
2021/05/14 01:57:37;;;;;;;0.65;0.30;;;;;;;10.89;63.74;96388.00;4996011;28;20033;-78
2021/05/14 02:00:05;;;;;;;1.10;0.30;;;;;;;10.86;63.96;96391.94;4993390;28;20457;-78
2021/05/14 02:02:31;;;;;;;0.50;0.38;;;;;;;10.93;63.80;96390.84;5007960;28;20030;-78
2021/05/14 02:04:56;;;;;;;0.40;0.20;;;;;;;10.89;63.83;96390.63;4989060;28;20036;-78
2021/05/14 02:07:21;;;;;;;0.90;0.45;;;;;;;10.83;63.95;96395.06;4970279;28;20384;-78
2021/05/14 02:09:47;;;;;;;0.75;0.30;;;;;;;10.90;63.78;96392.19;4975289;28;20061;-79
2021/05/14 02:12:12;;;;;;;0.52;0.30;;;;;;;10.96;63.36;96396.31;5011948;28;20041;-78
2021/05/14 02:14:38;;;;;;;0.63;0.22;;;;;;;10.94;63.59;96388.00;5011986;28;20088;-78
2021/05/14 02:17:03;;;;;;;0.55;0.30;;;;;;;10.92;63.33;96384.09;4995728;28;20346;-78
2021/05/14 02:19:29;;;;;;;0.60;0.30;;;;;;;10.92;63.39;96392.69;5011029;28;20037;-78
2021/05/14 02:21:54;;;;;;;0.65;0.30;;;;;;;10.97;63.94;96391.91;5002671;28;20030;-78
2021/05/14 02:24:19;;;;;;;0.40;0.30;;;;;;;10.95;63.42;96386.97;4995809;28;20041;-78
2021/05/14 02:26:45;;;;;;;1.05;0.30;;;;;;;10.91;63.40;96385.91;4989302;28;20037;-78
2021/05/14 02:29:10;;;;;;;2.10;0.47;;;;;;;10.87;63.65;96382.28;5029305;28;20061;-78
2021/05/14 02:31:36;;;;;;;0.85;0.30;;;;;;;10.78;63.28;96382.06;5011788;28;20083;-79
2021/05/14 02:34:01;;;;;;;0.40;0.30;;;;;;;10.74;63.49;96382.84;5011657;28;20033;-78
2021/05/14 02:36:27;;;;;;;0.45;0.30;;;;;;;10.67;63.45;96376.06;4991831;28;20036;-78
2021/05/14 02:38:52;;;;;;;1.05;0.40;;;;;;;10.67;62.99;96376.06;4994994;28;20485;-78
2021/05/14 02:41:18;;;;;;;0.85;0.20;;;;;;;10.65;63.51;96380.78;4979037;28;20021;-78
2021/05/14 02:43:43;;;;;;;1.17;0.20;;;;;;;10.60;63.84;96374.81;5011205;28;20065;-78
2021/05/14 02:46:09;;;;;;;0.52;0.38;;;;;;;10.61;64.03;96376.38;4978877;28;20029;-78
2021/05/14 02:48:35;;;;;;;0.47;0.30;;;;;;;10.64;64.11;96374.03;4994760;28;20381;-79
2021/05/14 02:51:01;;;;;;;0.35;0.30;;;;;;;10.71;64.40;96385.97;5010855;28;20073;-78
2021/05/14 02:53:26;;;;;;;0.63;0.40;;;;;;;10.76;64.12;96384.16;4994878;28;20550;-78
2021/05/14 02:55:51;;;;;;;0.63;0.40;;;;;;;10.79;64.80;96385.44;4994502;28;20560;-78
2021/05/14 02:58:17;;;;;;;0.43;0.30;;;;;;;10.82;64.65;96377.88;4994867;28;20097;-78
2021/05/14 03:00:45;;;;;;;0.52;0.30;;;;;;;10.87;64.00;96385.66;5010026;28;20067;-78
2021/05/14 03:03:10;;;;;;;0.60;0.40;;;;;;;10.97;64.10;96382.25;4984961;28;20136;-78
2021/05/14 03:05:35;;;;;;;0.43;0.30;;;;;;;10.96;63.96;96378.09;5021368;28;20036;-78
2021/05/14 03:08:01;;;;;;;1.33;0.40;;;;;;;10.90;63.94;96371.34;5010987;28;20025;-78
2021/05/14 03:10:27;;;;;;;0.85;0.47;;;;;;;10.88;64.11;96370.81;5010739;28;20105;-78
2021/05/14 03:12:52;;;;;;;0.82;0.45;;;;;;;10.83;63.62;96379.44;4978734;28;20532;-78
2021/05/14 03:15:18;;;;;;;1.40;0.40;;;;;;;10.77;63.80;96371.91;5004009;28;20034;-78
2021/05/14 03:17:43;;;;;;;0.50;0.30;;;;;;;10.77;63.38;96371.91;5011214;28;20371;-78
2021/05/14 03:20:09;;;;;;;0.75;0.40;;;;;;;10.65;64.00;96367.75;4978287;28;20030;-78
2021/05/14 03:22:35;;;;;;;1.25;0.30;;;;;;;10.61;63.99;96377.16;5009932;28;20395;-78
2021/05/14 03:25:00;;;;;;;0.47;0.40;;;;;;;10.60;63.96;96380.78;4998272;28;20496;-78
2021/05/14 03:27:26;;;;;;;1.15;0.30;;;;;;;10.59;63.83;96381.03;5028316;28;20436;-78
2021/05/14 03:29:52;;;;;;;0.77;0.40;;;;;;;10.53;63.67;96379.50;5010907;28;20083;-78
2021/05/14 03:32:17;;;;;;;0.63;0.50;;;;;;;10.49;63.93;96389.66;4995015;28;20037;-78
2021/05/14 03:34:42;;;;;;;1.00;0.32;;;;;;;10.47;63.65;96383.94;5008127;28;20025;-78
2021/05/14 03:37:08;;;;;;;1.58;0.40;;;;;;;10.44;63.97;96384.47;4994783;28;20040;-78
2021/05/14 03:39:39;;;;;;;0.82;0.43;;;;;;;10.42;63.95;96384.72;4978003;28;20061;-78
2021/05/14 03:42:24;;;;;;;1.10;0.30;;;;;;;10.41;63.83;96382.38;4995225;28;20084;-78
2021/05/14 03:44:52;;;;;;;0.60;0.40;;;;;;;10.34;64.00;96381.88;4999238;28;20048;-78
2021/05/14 03:47:22;;;;;;;1.85;0.50;;;;;;;10.27;64.01;96382.13;5010793;28;20463;-78
2021/05/14 03:49:50;;;;;;;0.80;0.50;;;;;;;10.21;63.89;96383.94;5010742;28;20037;-78
2021/05/14 03:52:15;;;;;;;0.52;0.47;;;;;;;10.37;64.03;96381.38;5027756;28;20041;-78
2021/05/14 03:54:41;;;;;;;0.65;0.35;;;;;;;10.27;64.17;96382.13;4988898;28;20036;-78
2021/05/14 03:57:07;;;;;;;1.55;0.68;;;;;;;10.28;63.96;96379.25;4978396;28;20408;-78
2021/05/14 03:59:33;;;;;;;0.82;0.57;;;;;;;10.35;64.59;96383.41;4994078;28;20025;-78
2021/05/14 04:01:59;;;;;;;1.63;0.77;;;;;;;10.33;64.52;96382.91;4991312;28;20156;-78
2021/05/14 04:04:25;;;;;;;0.50;0.45;;;;;;;10.37;64.50;96382.13;4992206;28;20029;-78
2021/05/14 04:06:51;;;;;;;1.40;0.65;;;;;;;10.39;64.44;96380.03;4998027;28;20064;-78
2021/05/14 04:09:30;;;;;;;1.45;0.85;;;;;;;10.42;64.52;96386.56;4995897;28;20033;-78
2021/05/14 04:14:41;;;;;;;1.55;0.70;;;;;;;10.46;64.67;96382.38;4996171;28;20087;-78
2021/05/14 04:17:09;;;;;;;0.70;0.50;;;;;;;10.44;64.63;96380.03;5011272;28;20492;-78
2021/05/14 04:19:34;;;;;;;1.85;0.40;;;;;;;10.47;64.61;96379.53;4997354;28;20034;-78
2021/05/14 04:22:02;;;;;;;0.60;0.50;;;;;;;10.44;64.74;96371.47;4994734;28;20079;-78
2021/05/14 04:24:27;;;;;;;1.85;0.80;;;;;;;10.51;64.65;96389.41;4994897;28;20026;-78
2021/05/14 04:26:55;;;;;;;1.70;0.80;;;;;;;10.44;64.59;96381.88;4974654;28;20041;-78
2021/05/14 04:29:21;;;;;;;0.95;0.55;;;;;;;10.54;64.17;96381.84;5012856;28;20083;-78
2021/05/14 04:31:49;;;;;;;0.68;0.52;;;;;;;10.52;64.22;96383.94;4997283;28;20484;-78
2021/05/14 04:34:17;;;;;;;1.45;0.52;;;;;;;10.54;64.18;96384.47;5010142;28;20045;-78
2021/05/14 04:36:43;;;;;;;0.82;0.40;;;;;;;10.58;64.21;96382.88;5013375;28;20548;-79
2021/05/14 04:39:10;;;;;;;0.90;0.60;;;;;;;10.58;64.31;96384.72;4980559;28;20137;-78
2021/05/14 04:41:36;;;;;;;0.77;0.60;;;;;;;10.68;64.01;96393.28;5006912;28;20033;-78
2021/05/14 04:44:02;;;;;;;1.33;0.60;;;;;;;10.71;64.19;96394.56;4978787;28;20507;-78
2021/05/14 04:46:27;;;;;;;1.52;0.60;;;;;;;10.70;64.24;96394.84;4992724;28;20029;-78
2021/05/14 04:48:52;;;;;;;1.35;0.63;;;;;;;10.72;64.19;96382.34;5006264;28;20485;-78
2021/05/14 04:51:19;;;;;;;0.85;0.50;;;;;;;10.74;64.13;96390.66;4997362;28;20032;-78
2021/05/14 04:53:45;;;;;;;1.02;0.75;;;;;;;10.78;64.39;96392.47;4997250;28;20488;-78
2021/05/14 04:56:13;;;;;;;1.55;0.55;;;;;;;10.83;64.03;96381.25;5013245;28;20026;-78
2021/05/14 04:58:38;;;;;;;0.93;0.47;;;;;;;10.90;64.27;96384.38;4996224;28;20095;-78
2021/05/14 05:01:03;;;;;;;1.15;0.52;;;;;;;10.98;64.14;96385.63;5022807;28;20034;-79
2021/05/14 05:03:29;;;;;;;1.08;0.70;;;;;;;11.02;64.03;96397.88;4995873;28;20079;-78
2021/05/14 05:05:55;;;;;;;2.00;0.68;;;;;;;11.16;63.98;96392.88;4965875;28;20150;-78
2021/05/14 05:08:20;;;;;;;0.60;0.52;;;;;;;11.26;63.92;96397.25;5005559;28;20033;-78
2021/05/14 05:10:46;;;;;;;1.20;0.77;;;;;;;11.37;63.88;96398.75;5012275;28;20335;-78
2021/05/14 05:13:11;;;;;;;1.50;0.52;;;;;;;11.55;63.36;96407.00;4995866;28;20040;-78
2021/05/14 05:15:36;;;;;;;1.00;0.70;;;;;;;11.66;63.00;96397.31;4988430;28;20030;-78
2021/05/14 05:18:02;;;;;;;1.00;0.63;;;;;;;11.76;62.60;96405.09;4977191;28;20031;-78
2021/05/14 05:20:27;;;;;;;0.77;0.50;;;;;;;11.82;62.74;96401.38;4979074;28;20048;-78
2021/05/14 05:22:53;;;;;;;0.98;0.50;;;;;;;11.90;62.47;96405.25;4990366;28;20535;-78
2021/05/14 05:25:18;;;;;;;0.95;0.57;;;;;;;11.86;62.38;96405.03;4997083;28;20781;-78
2021/05/14 05:27:44;;;;;;;0.88;0.50;;;;;;;11.98;62.26;96407.31;5030733;28;20496;-78
2021/05/14 05:30:10;;;;;;;0.80;0.50;;;;;;;12.07;61.52;96404.91;4978404;28;20033;-78
2021/05/14 05:32:35;;;;;;;1.15;0.73;;;;;;;11.96;62.32;96412.00;5003711;28;20037;-78
2021/05/14 05:35:00;;;;;;;2.42;1.15;;;;;;;12.14;62.12;96406.13;4993415;28;20238;-78
2021/05/14 05:37:26;;;;;;;1.40;0.85;;;;;;;12.15;61.92;96397.28;5012625;28;20392;-78
2021/05/14 05:39:51;;;;;;;1.02;0.75;;;;;;;12.25;61.68;96416.50;4975224;28;20034;-78
2021/05/14 05:42:17;;;;;;;1.20;0.77;;;;;;;12.38;60.90;96415.88;4996883;28;20428;-78
2021/05/14 05:44:42;;;;;;;1.58;0.77;;;;;;;12.37;61.54;96414.31;4984386;28;20061;-78
2021/05/14 05:47:08;;;;;;;1.52;1.23;;;;;;;12.49;60.73;96417.34;4975375;28;20036;-78
2021/05/14 05:49:34;;;;;;;2.05;1.10;;;;;;;12.58;60.68;96414.94;4996409;28;20380;-78
2021/05/14 05:52:00;;;;;;;1.65;0.80;;;;;;;12.70;60.15;96423.16;5011982;28;20033;-78
2021/05/14 05:54:27;;;;;;;2.00;0.90;;;;;;;12.80;59.65;96418.88;5010516;28;20507;-78
2021/05/14 05:56:57;;;;;;;2.60;0.98;;;;;;;12.94;59.07;96422.41;4973355;28;20030;-78
2021/05/14 05:59:22;;;;;;;1.00;0.90;;;;;;;13.15;59.02;96432.63;4970618;28;20376;-78
2021/05/14 06:01:49;;;;;;;1.60;1.00;;;;;;;13.37;58.32;96424.31;4982619;28;20116;-78
2021/05/14 06:04:14;;;;;;;1.55;0.90;;;;;;;13.49;58.21;96429.91;5012592;28;20061;-78
2021/05/14 06:06:40;;;;;;;1.95;1.15;;;;;;;13.68;57.46;96432.53;5011608;28;20102;-78
2021/05/14 06:09:05;;;;;;;1.30;1.20;;;;;;;13.93;57.00;96431.41;4971706;28;20509;-78
2021/05/14 06:11:31;;;;;;;2.97;1.08;;;;;;;14.11;55.86;96435.06;4968258;28;20037;-78
2021/05/14 06:13:56;;;;;;;1.50;1.00;;;;;;;14.32;55.33;96440.00;4998107;28;20464;-78
2021/05/14 06:16:21;;;;;;;1.67;1.05;;;;;;;14.53;54.94;96437.81;5012280;28;20427;-78
2021/05/14 06:19:12;;;;;;;1.25;0.95;;;;;;;14.58;55.51;96435.09;4993425;28;20032;-77
2021/05/14 06:21:42;;;;;;;1.27;0.93;;;;;;;14.97;53.91;96433.94;5025749;28;20041;-78
2021/05/14 06:24:08;;;;;;;1.35;0.95;;;;;;;15.15;53.67;96433.06;4980469;28;20072;-78
2021/05/14 06:26:33;;;;;;;1.27;1.00;;;;;;;15.47;52.57;96434.03;4995714;28;20125;-78
2021/05/14 06:28:59;;;;;;;1.52;1.13;;;;;;;15.81;52.04;96437.28;5010401;28;20301;-78
2021/05/14 06:31:24;;;;;;;1.25;1.10;;;;;;;16.15;50.91;96441.28;4993233;28;20021;-78
2021/05/14 06:33:49;;;;;;;1.38;0.90;;;;;;;16.45;49.40;96445.81;5010554;28;20101;-78
2021/05/14 06:36:15;;;;;;;1.23;1.08;;;;;;;16.60;49.88;96438.63;4997453;28;20052;-78
2021/05/14 06:38:40;;;;;;;0.95;0.60;;;;;;;16.73;49.72;96448.28;4978612;28;20096;-78
2021/05/14 06:41:05;;;;;;;2.65;1.08;;;;;;;17.02;48.84;96452.31;4992947;28;20389;-77
2021/05/14 06:43:31;;;;;;;2.15;1.10;;;;;;;17.07;48.57;96432.97;4995504;28;20064;-78
2021/05/14 06:45:56;;;;;;;0.98;0.80;;;;;;;17.23;48.41;96439.38;4967512;28;20061;-77
2021/05/14 06:48:21;;;;;;;2.05;0.98;;;;;;;17.42;47.15;96444.38;5016234;28;20053;-78
2021/05/14 06:50:47;;;;;;;1.15;0.80;;;;;;;17.22;49.01;96451.75;5023967;28;20041;-78
2021/05/14 06:53:12;;;;;;;0.93;0.60;;;;;;;17.59;48.11;96448.91;4991017;28;20121;-78
2021/05/14 06:55:38;;;;;;;2.00;0.80;;;;;;;17.32;48.68;96449.91;4984739;28;20057;-78
2021/05/14 06:58:03;;;;;;;1.40;0.70;;;;;;;17.30;48.58;96458.13;4986518;28;20033;-78
2021/05/14 07:00:30;;;;;;;0.90;0.70;;;;;;;17.53;48.87;96456.19;4996509;28;20025;-77
2021/05/14 07:02:56;;;;;;;1.65;0.95;;;;;;;17.65;48.55;96452.16;4992187;28;20025;-78
2021/05/14 07:05:21;;;;;;;2.05;1.00;;;;;;;17.57;47.91;96451.84;5018993;28;20384;-78
2021/05/14 07:07:46;;;;;;;0.95;0.90;;;;;;;17.69;47.79;96448.59;4967789;28;20036;-77
2021/05/14 07:10:12;;;;;;;1.98;1.20;;;;;;;17.89;47.31;96451.75;5003207;28;20365;-77
2021/05/14 07:12:39;;;;;;;1.27;0.80;;;;;;;18.13;45.61;96452.06;4986206;28;20291;-78
2021/05/14 07:15:07;;;;;;;2.65;0.90;;;;;;;18.05;48.18;96450.22;4984021;28;20036;-77
2021/05/14 07:17:33;;;;;;;1.23;0.90;;;;;;;18.56;45.34;96463.66;4980967;28;20252;-77
2021/05/14 07:19:58;;;;;;;1.08;0.98;;;;;;;18.64;45.97;96462.06;4999995;28;20044;-78
2021/05/14 07:22:23;;;;;;;1.42;0.80;;;;;;;18.76;46.08;96462.19;5023153;28;20030;-77
2021/05/14 07:24:49;;;;;;;1.85;0.73;;;;;;;18.99;44.36;96451.47;5018097;28;20030;-78
2021/05/14 07:27:15;;;;;;;2.38;1.05;;;;;;;19.26;43.78;96458.94;4994685;28;20511;-78
2021/05/14 07:29:42;;;;;;;1.67;1.25;;;;;;;19.49;43.57;96458.69;5001239;28;20045;-78
2021/05/14 07:32:07;;;;;;;2.42;0.80;;;;;;;19.66;43.18;96455.16;4974785;28;20029;-78
2021/05/14 07:34:33;;;;;;;1.02;0.63;;;;;;;20.04;41.70;96458.81;5014059;28;20116;-77
2021/05/14 07:36:58;;;;;;;0.90;0.80;;;;;;;19.97;41.54;96459.31;4984530;28;20029;-78
2021/05/14 07:39:24;;;;;;;1.10;1.00;;;;;;;19.82;43.04;96453.50;5000802;28;20087;-78
2021/05/14 07:41:49;;;;;;;0.93;0.60;;;;;;;20.02;40.65;96457.25;5009720;28;20064;-78
2021/05/14 07:44:15;;;;;;;1.75;1.02;;;;;;;19.85;41.30;96452.09;4992295;28;20034;-77
2021/05/14 07:46:40;;;;;;;1.10;0.85;;;;;;;19.87;41.89;96452.56;5002178;28;20076;-77
2021/05/14 07:49:06;;;;;;;1.40;0.68;;;;;;;20.12;41.40;96457.97;4981441;28;20445;-78
2021/05/14 07:51:32;;;;;;;2.38;0.60;;;;;;;20.32;42.03;96454.53;5014386;28;20388;-77
2021/05/14 07:53:57;;;;;;;0.90;0.60;;;;;;;20.29;39.27;96457.03;4991374;28;20036;-78
2021/05/14 07:56:23;;;;;;;0.40;0.40;;;;;;;20.28;39.27;96450.97;4991278;28;20040;-78
2021/05/14 07:58:49;;;;;;;0.77;0.40;;;;;;;20.09;40.12;96448.03;5008891;28;20755;-77
2021/05/14 08:01:14;;;;;;;0.60;0.60;;;;;;;20.33;41.19;96450.78;4981833;28;20036;-77
2021/05/14 08:03:39;;;;;;;1.15;0.50;;;;;;;20.84;39.08;96449.84;4997343;28;20159;-77
2021/05/14 08:06:05;;;;;;;0.40;0.40;;;;;;;21.16;37.61;96447.44;4990157;28;20028;-77
2021/05/14 08:08:34;;;;;;;0.40;0.40;;;;;;;21.33;38.15;96447.19;4969956;28;20116;-77
2021/05/14 08:10:59;;;;;;;0.50;0.40;;;;;;;21.49;38.44;96448.13;4988370;28;20508;-77
2021/05/14 08:13:25;;;;;;;0.57;0.30;;;;;;;21.90;36.83;96445.50;4974101;28;20374;-77
2021/05/14 08:15:51;;;;;;;0.40;0.35;;;;;;;22.04;37.23;96442.47;4982852;28;20032;-77
2021/05/14 08:18:19;;;;;;;1.02;0.25;;;;;;;22.04;36.95;96447.78;5002143;28;20033;-78
2021/05/14 08:20:48;;;;;;;1.08;0.50;;;;;;;21.80;35.64;96448.63;5014878;28;20025;-77
2021/05/14 08:23:19;;;;;;;1.67;0.63;;;;;;;21.79;36.09;96447.84;4986335;28;20034;-78
2021/05/14 08:25:45;;;;;;;1.00;0.40;;;;;;;21.65;38.21;96447.44;4993282;28;20392;-77
2021/05/14 08:28:12;;;;;;;0.43;0.30;;;;;;;21.59;37.55;96456.69;5006073;28;20030;-77
2021/05/14 08:30:38;;;;;;;0.30;0.30;;;;;;;21.41;37.40;96450.84;4989561;28;20072;-77
2021/05/14 08:33:04;;;;;;;0.43;0.30;;;;;;;21.78;35.84;96454.25;4965848;28;20507;-77
2021/05/14 08:35:32;;;;;;;0.68;0.30;;;;;;;21.85;36.82;96446.50;4988724;28;20962;-77
2021/05/14 08:37:57;;;;;;;0.40;0.30;;;;;;;21.87;36.77;96449.59;5015265;28;20041;-78
2021/05/14 08:40:23;;;;;;;0.75;0.30;;;;;;;22.00;35.87;96452.19;4987863;28;20038;-77
2021/05/14 08:42:48;;;;;;;0.30;0.30;;;;;;;22.67;33.78;96451.72;5031758;28;20069;-77
2021/05/14 08:45:15;;;;;;;1.55;0.40;;;;;;;22.94;33.11;96445.56;4991185;28;20121;-77
2021/05/14 08:47:41;;;;;;;0.73;0.40;;;;;;;22.71;35.70;96447.28;4987441;28;20033;-77
2021/05/14 08:50:10;;;;;;;1.08;0.40;;;;;;;23.03;33.33;96444.63;4996845;28;20263;-78
2021/05/14 08:52:38;;;;;;;0.65;0.45;;;;;;;22.79;34.43;96452.44;4993191;28;20031;-78
2021/05/14 08:55:08;;;;;;;0.50;0.43;;;;;;;23.11;32.97;96449.03;4994620;28;20026;-77
2021/05/14 08:57:33;;;;;;;0.82;0.30;;;;;;;23.86;31.81;96449.94;4990443;28;20040;-77
2021/05/14 08:59:59;;;;;;;0.40;0.40;;;;;;;23.82;32.39;96446.41;5024692;28;20408;-77
2021/05/14 09:02:24;;;;;;;1.35;0.40;;;;;;;23.80;33.36;96449.38;5000651;28;20572;-77
2021/05/14 09:04:50;;;;;;;1.60;0.52;;;;;;;23.40;35.82;96447.03;5013409;28;20462;-77
2021/05/14 09:07:16;;;;;;;0.70;0.50;;;;;;;23.79;32.37;96447.09;4980763;28;20033;-78
2021/05/14 09:10:11;;;;;;;0.55;0.40;;;;;;;23.36;31.31;96445.06;4985249;28;20026;-78
2021/05/14 09:12:38;;;;;;;0.60;0.40;;;;;;;23.66;29.66;96452.53;5001154;28;20418;-77
2021/05/14 09:15:29;;;;;;;0.40;0.40;;;;;;;23.45;32.05;96449.41;5030648;28;20292;-78
2021/05/14 09:18:17;;;;;;;1.02;0.70;;;;;;;23.22;33.37;96433.31;4967364;28;20095;-78
2021/05/14 09:20:57;;;;;;;0.80;0.30;;;;;;;23.84;31.75;96454.84;5020121;28;20470;-77
2021/05/14 09:23:27;;;;;;;0.30;0.30;;;;;;;23.76;29.63;96445.91;4990235;28;20365;-77
2021/05/14 09:25:59;;;;;;;0.88;0.50;;;;;;;23.10;31.19;96455.44;4983543;28;20045;-77
2021/05/14 09:28:36;;;;;;;0.93;0.40;;;;;;;22.86;32.47;96453.69;5006494;28;20044;-78
2021/05/14 09:31:33;;;;;;;0.63;0.50;;;;;;;22.92;30.97;96447.78;5002338;28;20093;-77
2021/05/14 09:34:00;;;;;;;0.80;0.52;;;;;;;22.91;31.50;96443.63;4954939;28;20046;-77
2021/05/14 09:36:31;;;;;;;0.60;0.30;;;;;;;21.91;33.36;96448.91;4980748;28;20030;-77
2021/05/14 09:39:01;;;;;;;1.67;0.40;;;;;;;22.54;31.64;96451.03;4989461;28;20095;-77
2021/05/14 09:41:37;;;;;;;0.65;0.43;;;;;;;22.73;31.18;96445.06;5007165;28;20393;-76
2021/05/14 09:44:18;;;;;;;0.40;0.40;;;;;;;22.72;31.95;96451.47;4968526;28;20495;-78
2021/05/14 09:46:48;;;;;;;0.40;0.40;;;;;;;22.55;31.31;96444.59;4995381;28;20022;-77
2021/05/14 09:49:18;;;;;;;0.85;0.40;;;;;;;22.01;33.58;96435.97;4986894;28;20025;-78
2021/05/14 09:51:52;;;;;;;0.63;0.30;;;;;;;22.53;31.26;96436.97;4993744;28;20041;-77
2021/05/14 09:54:37;;;;;;;10.82;1.52;;;;;;;22.82;33.11;96440.34;4966762;28;20025;-78
2021/05/14 09:59:58;;;;;;;0.40;0.40;;;;;;;24.07;30.68;96437.06;5013292;28;20064;-78
2021/05/14 10:02:29;;;;;;;0.40;0.35;;;;;;;24.59;28.76;96431.56;5021547;28;20029;-77
2021/05/14 10:04:55;;;;;;;0.40;0.40;;;;;;;24.24;28.90;96440.41;5005575;28;20029;-77
2021/05/14 10:07:23;;;;;;;0.63;0.52;;;;;;;23.65;30.64;96437.72;4971532;28;20117;-78
2021/05/14 10:09:52;;;;;;;0.82;0.40;;;;;;;23.18;30.74;96438.56;4988667;28;20191;-78
2021/05/14 10:12:22;;;;;;;0.68;0.30;;;;;;;22.60;32.41;96437.16;4976846;28;20033;-78
2021/05/14 10:14:48;;;;;;;4.38;2.53;;;;;;;22.21;33.09;96438.78;4995927;28;20029;-77
2021/05/14 10:17:13;;;;;;;3.60;0.88;;;;;;;22.11;32.56;96442.66;5005508;28;20164;-77
2021/05/14 10:19:40;;;;;;;3.50;0.90;;;;;;;22.10;34.10;96435.06;5000304;28;20491;-77
2021/05/14 10:22:06;;;;;;;12.00;3.78;;;;;;;22.67;34.31;96433.94;4998360;28;20057;-77
2021/05/14 10:24:41;;;;;;;2.13;0.93;;;;;;;23.34;32.87;96428.69;4989750;28;20037;-77
2021/05/14 10:27:16;;;;;;;0.85;0.60;;;;;;;23.96;31.17;96428.09;4987450;28;20440;-78
2021/05/14 10:29:46;;;;;;;10.55;3.25;;;;;;;24.24;30.76;96424.44;5016707;28;20483;-77
2021/05/14 10:32:12;;;;;;;5.97;1.75;;;;;;;23.66;32.74;96423.28;5019168;28;20613;-78
2021/05/14 10:34:37;;;;;;;0.95;0.70;;;;;;;23.71;31.31;96425.66;4987858;28;20065;-77
2021/05/14 10:37:03;;;;;;;3.50;0.90;;;;;;;23.21;32.73;96421.94;4979470;28;20068;-78
2021/05/14 10:39:33;;;;;;;2.45;0.73;;;;;;;23.04;32.07;96430.25;4957131;28;20370;-77
2021/05/14 10:42:07;;;;;;;0.60;0.35;;;;;;;22.45;32.37;96419.34;4987763;28;20029;-78
2021/05/14 10:44:53;;;;;;;1.38;0.45;;;;;;;21.95;33.28;96423.28;4992527;28;20046;-78
2021/05/14 10:47:22;;;;;;;0.70;0.40;;;;;;;21.63;36.15;96428.47;4985091;28;20037;-78
2021/05/14 10:49:51;;;;;;;1.10;0.40;;;;;;;21.56;35.35;96431.66;4989348;28;20128;-78
2021/05/14 10:52:17;;;;;;;0.82;0.40;;;;;;;21.33;37.18;96431.31;4984610;28;20045;-77
2021/05/14 10:54:42;;;;;;;0.88;0.40;;;;;;;21.83;35.33;96426.72;4976522;28;20205;-77
2021/05/14 10:57:09;;;;;;;1.15;0.50;;;;;;;22.69;33.66;96415.00;5023006;28;20048;-78
2021/05/14 10:59:38;;;;;;;0.50;0.50;;;;;;;22.89;32.28;96419.28;4996768;28;20026;-77
2021/05/14 11:02:27;;;;;;;0.50;0.30;;;;;;;23.14;34.08;96419.13;4974513;28;20112;-77
2021/05/14 11:04:53;;;;;;;0.80;0.30;;;;;;;23.36;31.70;96415.06;5001025;28;20091;-77
2021/05/14 11:07:40;;;;;;;0.57;0.30;;;;;;;23.48;29.72;96420.25;5023879;28;20029;-78
2021/05/14 11:10:15;;;;;;;0.40;0.40;;;;;;;23.65;30.18;96410.38;4997610;28;20551;-78
2021/05/14 11:12:43;;;;;;;0.47;0.30;;;;;;;23.54;29.18;96413.56;4996599;28;20083;-78
2021/05/14 11:15:14;;;;;;;1.02;0.30;;;;;;;22.85;31.29;96410.47;4982689;28;20429;-78
2021/05/14 11:17:40;;;;;;;0.50;0.40;;;;;;;22.64;31.47;96410.72;4997211;28;20042;-78
2021/05/14 11:20:20;;;;;;;0.45;0.30;;;;;;;22.01;31.50;96411.34;5000114;28;20527;-78
2021/05/14 11:22:46;;;;;;;0.50;0.38;;;;;;;21.99;31.79;96416.97;4991362;28;20086;-78
2021/05/14 11:25:21;;;;;;;1.17;1.02;;;;;;;21.70;33.70;96418.81;4990109;28;20076;-78
2021/05/14 11:27:51;;;;;;;0.50;0.40;;;;;;;22.31;32.36;96424.28;4996096;28;20069;-78
2021/05/14 11:30:16;;;;;;;0.88;0.40;;;;;;;22.05;31.44;96433.41;4991236;28;20479;-77
2021/05/14 11:32:44;;;;;;;1.40;0.40;;;;;;;21.39;31.76;96430.00;4979079;28;20113;-78
2021/05/14 11:35:17;;;;;;;0.22;0.22;;;;;;;20.64;33.49;96433.69;4993958;28;20058;-78
2021/05/14 11:37:56;;;;;;;0.90;0.55;;;;;;;20.08;35.21;96435.91;4995835;28;20040;-78
2021/05/14 11:40:26;;;;;;;1.38;0.40;;;;;;;20.37;34.18;96446.41;4983783;28;20202;-77